Time;durP1;ratioP1;P1;durP2;ratioP2;P2;SDS_P1;SDS_P2;PMS_P1;PMS_P2;Temp;Humidity;BMP_temperature;BMP_pressure;BME280_temperature;BME280_humidity;BME280_pressure;Samples;Min_cycle;Max_cycle;Signal;HPM_P1;HPM_P2
2023/04/23 00:00:02;;;;;;;31.30;18.80;;;10.70;99.90;;;;;;5049570;28;20236;-68
2023/04/23 00:02:32;;;;;;;34.27;19.10;;;10.60;99.90;;;;;;5052401;28;20185;-68
2023/04/23 00:05:05;;;;;;;30.60;19.43;;;10.50;99.90;;;;;;5039511;28;20725;-68
2023/04/23 00:07:32;;;;;;;33.00;18.30;;;10.40;99.90;;;;;;5043372;28;20224;-67
2023/04/23 00:09:59;;;;;;;30.47;19.20;;;10.50;99.90;;;;;;5046777;28;20183;-65
2023/04/23 00:12:26;;;;;;;27.03;16.07;;;10.50;99.90;;;;;;5043804;28;20197;-68
2023/04/23 00:14:52;;;;;;;35.13;19.70;;;10.50;99.90;;;;;;5049366;28;20557;-67
2023/04/23 00:17:18;;;;;;;33.77;19.27;;;10.50;99.90;;;;;;5047803;28;20178;-66
2023/04/23 00:19:44;;;;;;;28.67;17.97;;;10.60;99.90;;;;;;5049491;28;20185;-67
2023/04/23 00:22:12;;;;;;;24.37;16.20;;;10.70;99.90;;;;;;5048470;28;20659;-69
2023/04/23 00:24:38;;;;;;;30.70;18.07;;;10.70;99.90;;;;;;5046480;28;20222;-67
2023/04/23 00:27:04;;;;;;;34.43;18.27;;;10.80;99.90;;;;;;5040899;28;20189;-67
2023/04/23 00:29:31;;;;;;;26.33;16.53;;;10.70;99.90;;;;;;5048519;28;20182;-67
2023/04/23 00:31:56;;;;;;;30.33;18.50;;;10.70;99.90;;;;;;5051049;28;20643;-67
2023/04/23 00:34:22;;;;;;;31.30;17.70;;;10.70;99.90;;;;;;5042794;28;20204;-67
2023/04/23 00:36:48;;;;;;;29.17;17.90;;;10.70;99.90;;;;;;5046576;28;20206;-67
2023/04/23 00:39:13;;;;;;;32.33;17.40;;;10.70;99.90;;;;;;5042006;28;20216;-66
2023/04/23 00:41:41;;;;;;;31.33;17.73;;;10.80;99.90;;;;;;5045887;28;20228;-67
2023/04/23 00:44:07;;;;;;;32.17;18.37;;;10.70;99.90;;;;;;5046136;28;20483;-69
2023/04/23 00:46:34;;;;;;;30.00;19.13;;;10.70;99.90;;;;;;5048459;28;20184;-66
2023/04/23 00:49:01;;;;;;;24.73;16.87;;;10.80;99.90;;;;;;5043758;28;20183;-67
2023/04/23 00:51:27;;;;;;;25.53;16.87;;;10.90;99.90;;;;;;5048036;28;20223;-66
2023/04/23 00:53:54;;;;;;;27.33;16.73;;;10.90;99.90;;;;;;5054741;28;20182;-66
2023/04/23 00:56:21;;;;;;;27.23;16.53;;;10.90;99.90;;;;;;5045999;28;20189;-67
2023/04/23 00:58:46;;;;;;;26.97;16.57;;;11.00;99.90;;;;;;5053148;28;20185;-70
2023/04/23 01:01:13;;;;;;;27.53;16.33;;;11.30;99.90;;;;;;5050202;28;20223;-67
2023/04/23 01:03:40;;;;;;;27.27;17.43;;;11.20;99.90;;;;;;5039388;28;20589;-66
2023/04/23 01:06:06;;;;;;;28.63;16.93;;;11.40;99.90;;;;;;5043904;28;20214;-67
2023/04/23 01:08:33;;;;;;;32.10;16.77;;;11.60;99.90;;;;;;5050684;28;20190;-69
2023/04/23 01:11:01;;;;;;;24.90;15.37;;;11.40;99.90;;;;;;5047888;28;20289;-67
2023/04/23 01:13:28;;;;;;;27.20;14.27;;;11.50;99.90;;;;;;5050003;28;20209;-67
2023/04/23 01:15:55;;;;;;;22.53;15.23;;;11.40;99.90;;;;;;5054496;28;20204;-67
2023/04/23 01:18:21;;;;;;;27.20;15.43;;;11.40;99.90;;;;;;5052860;28;20615;-66
2023/04/23 01:20:48;;;;;;;26.80;15.43;;;11.40;99.90;;;;;;5046235;28;20179;-68
2023/04/23 01:23:15;;;;;;;21.63;13.97;;;11.20;99.90;;;;;;5053181;28;20185;-67
2023/04/23 01:25:41;;;;;;;20.00;13.23;;;11.20;99.90;;;;;;5053121;28;20297;-68
2023/04/23 01:28:07;;;;;;;21.65;13.05;;;11.40;99.90;;;;;;5049732;28;20623;-67
2023/04/23 01:30:33;;;;;;;19.80;12.30;;;11.40;99.90;;;;;;5054368;28;20257;-67
2023/04/23 01:32:59;;;;;;;16.90;11.55;;;11.50;99.90;;;;;;5041659;28;20258;-68
2023/04/23 01:35:25;;;;;;;17.13;12.60;;;11.50;99.90;;;;;;5044506;28;20190;-67
2023/04/23 01:37:53;;;;;;;19.33;12.10;;;11.50;99.90;;;;;;5051812;28;20231;-67
2023/04/23 01:40:20;;;;;;;22.90;12.35;;;11.70;99.90;;;;;;5053761;28;20186;-68
2023/04/23 01:42:46;;;;;;;19.23;11.13;;;11.50;99.90;;;;;;5043628;28;20187;-67
2023/04/23 01:45:12;;;;;;;18.50;12.40;;;11.60;99.90;;;;;;5047860;28;20566;-68
2023/04/23 01:47:40;;;;;;;16.50;11.15;;;11.60;99.90;;;;;;5043683;28;20584;-68
2023/04/23 01:50:06;;;;;;;15.02;10.93;;;11.60;99.90;;;;;;5047498;28;20205;-69
2023/04/23 01:52:32;;;;;;;21.50;10.70;;;11.70;99.90;;;;;;5049808;28;20635;-68
2023/04/23 01:54:57;;;;;;;15.32;11.25;;;11.80;99.90;;;;;;5044982;28;20189;-68
2023/04/23 01:57:25;;;;;;;14.15;10.38;;;11.70;99.90;;;;;;5044767;28;20186;-68
2023/04/23 01:59:53;;;;;;;20.10;10.18;;;11.90;99.90;;;;;;5052594;28;20189;-67
2023/04/23 02:02:19;;;;;;;18.63;10.63;;;11.80;99.90;;;;;;5051415;28;20170;-68
2023/04/23 02:04:47;;;;;;;17.25;11.05;;;11.70;99.90;;;;;;5053554;28;20225;-67
2023/04/23 02:07:13;;;;;;;13.32;9.45;;;11.90;99.90;;;;;;5052301;28;20209;-68
2023/04/23 02:09:39;;;;;;;16.40;10.80;;;11.90;99.90;;;;;;5051957;28;20643;-68
2023/04/23 02:12:05;;;;;;;19.95;12.05;;;11.80;99.90;;;;;;5045806;28;20662;-68
2023/04/23 02:14:31;;;;;;;15.88;9.68;;;11.70;99.90;;;;;;5083119;28;20193;-68
2023/04/23 02:16:56;;;;;;;12.95;8.75;;;11.60;99.90;;;;;;5061080;28;20541;-67
2023/04/23 02:19:22;;;;;;;14.57;10.13;;;11.70;99.90;;;;;;5053310;28;20225;-67
2023/04/23 02:21:48;;;;;;;15.73;9.98;;;11.80;99.90;;;;;;5053429;28;20182;-69
2023/04/23 02:24:14;;;;;;;15.85;9.18;;;11.80;99.90;;;;;;5050003;28;20215;-67
2023/04/23 02:26:39;;;;;;;15.77;9.88;;;11.60;99.90;;;;;;5052830;28;20654;-68
2023/04/23 02:29:05;;;;;;;13.38;9.10;;;11.50;99.90;;;;;;5043879;28;20206;-67
2023/04/23 02:31:31;;;;;;;14.30;9.07;;;11.40;99.90;;;;;;5052334;28;20217;-67
2023/04/23 02:33:56;;;;;;;12.48;9.57;;;11.40;99.90;;;;;;5051978;28;20640;-67
2023/04/23 02:36:22;;;;;;;13.43;9.15;;;11.50;99.90;;;;;;5041417;28;20189;-67
2023/04/23 02:38:49;;;;;;;12.80;9.60;;;11.60;99.90;;;;;;5045253;28;20182;-67
2023/04/23 02:41:15;;;;;;;14.52;9.90;;;11.50;99.90;;;;;;5040344;28;20205;-68
2023/04/23 02:43:41;;;;;;;15.35;9.40;;;11.50;99.90;;;;;;5044822;28;20185;-67
2023/04/23 02:46:07;;;;;;;18.20;10.05;;;11.50;99.90;;;;;;5053626;28;20573;-68
2023/04/23 02:48:40;;;;;;;18.07;10.57;;;11.60;99.90;;;;;;5039694;28;20194;-68
2023/04/23 02:51:09;;;;;;;16.42;10.10;;;11.80;99.90;;;;;;5040153;28;20197;-68
2023/04/23 02:53:35;;;;;;;16.50;10.07;;;11.70;99.90;;;;;;5051290;28;20697;-68
2023/04/23 02:56:01;;;;;;;18.02;10.65;;;11.60;99.90;;;;;;5051378;28;20213;-68
2023/04/23 02:58:28;;;;;;;14.10;10.05;;;11.70;99.90;;;;;;5051447;28;20212;-68
2023/04/23 03:00:54;;;;;;;11.68;9.38;;;11.60;99.90;;;;;;5039113;28;20193;-69
2023/04/23 03:03:21;;;;;;;14.35;10.02;;;11.80;99.90;;;;;;5052481;28;20186;-68
2023/04/23 03:05:46;;;;;;;15.20;10.23;;;11.70;99.90;;;;;;5046487;28;20670;-68
2023/04/23 03:08:12;;;;;;;17.85;10.10;;;11.80;99.90;;;;;;5050771;28;20265;-69
2023/04/23 03:10:38;;;;;;;15.27;9.85;;;11.50;99.90;;;;;;5040617;28;20305;-68
2023/04/23 03:13:03;;;;;;;16.45;9.77;;;11.60;99.90;;;;;;5051868;28;20264;-68
2023/04/23 03:15:29;;;;;;;15.93;10.05;;;11.70;99.90;;;;;;5051432;28;20189;-68
2023/04/23 03:17:55;;;;;;;13.00;9.50;;;11.70;99.90;;;;;;5051542;28;20245;-68
2023/04/23 03:20:21;;;;;;;20.20;9.57;;;11.70;99.90;;;;;;5036024;28;20183;-68
2023/04/23 03:22:46;;;;;;;15.47;10.03;;;11.60;99.90;;;;;;5048357;28;20189;-68
2023/04/23 03:25:12;;;;;;;14.90;10.40;;;11.60;99.90;;;;;;5052403;28;20209;-68
2023/04/23 03:27:39;;;;;;;14.43;9.77;;;11.40;99.90;;;;;;5049041;28;20186;-69
2023/04/23 03:30:07;;;;;;;15.90;10.37;;;11.30;99.90;;;;;;5042434;28;20193;-69
2023/04/23 03:32:33;;;;;;;17.43;11.00;;;11.40;99.90;;;;;;5052237;28;20192;-68
2023/04/23 03:34:59;;;;;;;13.10;8.93;;;11.40;99.90;;;;;;5039626;28;20529;-67
2023/04/23 03:37:26;;;;;;;17.00;10.07;;;11.40;99.90;;;;;;5052159;28;20239;-67
2023/04/23 03:39:51;;;;;;;15.27;9.80;;;11.40;99.90;;;;;;5050791;28;20193;-68
2023/04/23 03:42:17;;;;;;;15.97;10.53;;;11.10;99.90;;;;;;5043646;28;20186;-67
2023/04/23 03:44:43;;;;;;;15.97;10.70;;;11.00;99.90;;;;;;5047597;28;20292;-67
2023/04/23 03:47:08;;;;;;;16.20;9.90;;;11.00;99.90;;;;;;5050622;28;20541;-67
2023/04/23 03:49:35;;;;;;;12.60;9.23;;;10.90;99.90;;;;;;5042481;28;20194;-68
2023/04/23 03:52:00;;;;;;;12.33;9.23;;;11.00;99.90;;;;;;5075558;28;20537;-67
2023/04/23 03:54:27;;;;;;;13.73;10.03;;;11.00;99.90;;;;;;5045633;28;20186;-67
2023/04/23 03:56:53;;;;;;;13.07;10.10;;;11.10;99.90;;;;;;5073987;28;20186;-67
2023/04/23 03:59:19;;;;;;;14.60;9.17;;;11.10;99.90;;;;;;5051188;28;20190;-66
2023/04/23 04:01:47;;;;;;;13.60;10.07;;;11.10;99.90;;;;;;5051832;28;20538;-67
2023/04/23 04:04:13;;;;;;;17.17;11.07;;;11.00;99.90;;;;;;5051526;28;20768;-67
2023/04/23 04:06:39;;;;;;;15.53;10.10;;;10.80;99.90;;;;;;5051666;28;20186;-66
2023/04/23 04:09:07;;;;;;;9.43;8.40;;;10.60;99.90;;;;;;5050913;28;20564;-66
2023/04/23 04:11:33;;;;;;;13.67;9.97;;;10.60;99.90;;;;;;5057148;28;20213;-67
2023/04/23 04:13:58;;;;;;;14.20;8.70;;;10.50;99.90;;;;;;5051450;28;20208;-67
2023/04/23 04:16:24;;;;;;;15.00;9.60;;;10.50;99.90;;;;;;5051624;28;20272;-67
2023/04/23 04:18:50;;;;;;;10.52;8.13;;;10.60;99.90;;;;;;5047684;28;20227;-67
2023/04/23 04:21:17;;;;;;;13.17;8.80;;;10.50;99.90;;;;;;5042544;28;20652;-67
2023/04/23 04:23:44;;;;;;;14.97;9.17;;;10.50;99.90;;;;;;5050340;28;20210;-67
2023/04/23 04:26:10;;;;;;;14.00;9.23;;;10.30;99.90;;;;;;5052844;28;20255;-66
2023/04/23 04:28:36;;;;;;;13.43;9.53;;;10.30;99.90;;;;;;5053765;28;20178;-66
2023/04/23 04:31:04;;;;;;;11.50;8.60;;;10.50;99.90;;;;;;5052993;28;20210;-67
2023/04/23 04:33:30;;;;;;;11.23;7.43;;;10.70;99.90;;;;;;5052832;28;20224;-67
2023/04/23 04:35:56;;;;;;;14.53;9.30;;;10.80;99.90;;;;;;5052652;28;20594;-69
2023/04/23 04:38:22;;;;;;;12.00;8.10;;;10.70;99.90;;;;;;5049718;28;20646;-68
2023/04/23 04:40:48;;;;;;;12.90;8.00;;;10.80;99.90;;;;;;5037202;28;20186;-67
2023/04/23 04:43:15;;;;;;;12.30;8.97;;;10.60;99.90;;;;;;5054723;28;20206;-67
2023/04/23 04:45:41;;;;;;;13.17;8.40;;;10.40;99.90;;;;;;5054926;28;20194;-67
2023/04/23 04:48:07;;;;;;;10.87;7.67;;;10.40;99.90;;;;;;5054812;28;20229;-66
2023/04/23 04:50:33;;;;;;;12.27;7.63;;;10.40;99.90;;;;;;5054822;28;20235;-67
2023/04/23 04:52:59;;;;;;;12.07;8.30;;;10.60;99.90;;;;;;5053776;28;20580;-67
2023/04/23 04:55:26;;;;;;;10.87;7.83;;;10.70;99.90;;;;;;5044335;28;20723;-67
2023/04/23 04:57:52;;;;;;;14.83;7.80;;;10.60;99.90;;;;;;5042841;28;20182;-67
2023/04/23 05:00:18;;;;;;;11.37;7.73;;;10.80;99.90;;;;;;5053624;28;20189;-67
2023/04/23 05:02:46;;;;;;;12.67;8.03;;;10.90;99.90;;;;;;5036180;28;20187;-67
2023/04/23 05:05:12;;;;;;;11.70;8.20;;;11.10;99.90;;;;;;5047455;28;20209;-67
2023/04/23 05:07:37;;;;;;;12.57;8.47;;;10.90;99.90;;;;;;5054674;28;20657;-67
2023/04/23 05:10:03;;;;;;;13.90;8.80;;;10.90;99.90;;;;;;5054760;28;20186;-67
2023/04/23 05:12:29;;;;;;;13.67;7.87;;;11.00;99.90;;;;;;5054246;28;20210;-67
2023/04/23 05:14:54;;;;;;;12.17;6.90;;;11.10;99.90;;;;;;5048365;28;20198;-68
2023/04/23 05:17:20;;;;;;;12.13;8.50;;;11.10;99.90;;;;;;5050151;28;20198;-68
2023/04/23 05:19:46;;;;;;;13.03;7.73;;;11.20;99.90;;;;;;5049820;28;20227;-68
2023/04/23 05:22:16;;;;;;;12.83;6.77;;;11.20;99.90;;;;;;5087076;28;20552;-68
2023/04/23 05:24:41;;;;;;;10.00;6.13;;;11.00;99.90;;;;;;5052894;28;20646;-68
2023/04/23 05:27:07;;;;;;;12.37;7.07;;;11.00;99.90;;;;;;5075203;28;20183;-68
2023/04/23 05:29:33;;;;;;;13.03;7.03;;;11.20;99.90;;;;;;5050547;28;20186;-68
2023/04/23 05:31:58;;;;;;;10.13;6.97;;;11.20;99.90;;;;;;5061907;28;20937;-68
2023/04/23 05:34:24;;;;;;;24.43;7.87;;;11.20;99.90;;;;;;5058476;28;20201;-68
2023/04/23 05:36:50;;;;;;;9.55;6.70;;;11.40;99.90;;;;;;5053175;28;20178;-67
2023/04/23 05:39:15;;;;;;;8.33;5.33;;;11.50;99.90;;;;;;5048868;28;20190;-68
2023/04/23 05:41:41;;;;;;;10.00;5.50;;;11.50;99.90;;;;;;5048914;28;20182;-68
2023/04/23 05:44:06;;;;;;;8.20;6.03;;;11.50;99.90;;;;;;5044736;28;20198;-68
2023/04/23 05:46:32;;;;;;;8.47;5.70;;;11.50;99.90;;;;;;5042713;28;20178;-68
2023/04/23 05:48:58;;;;;;;8.70;5.55;;;11.60;99.90;;;;;;5044882;28;20273;-68
2023/04/23 05:51:23;;;;;;;11.98;5.97;;;11.60;99.90;;;;;;5037091;28;20198;-68
2023/04/23 05:53:49;;;;;;;7.45;5.45;;;11.70;99.90;;;;;;5052073;28;20209;-68
2023/04/23 05:56:15;;;;;;;8.40;4.73;;;11.60;99.90;;;;;;5051014;28;20193;-68
2023/04/23 05:58:41;;;;;;;11.18;5.90;;;11.70;99.90;;;;;;5048247;28;20186;-67
2023/04/23 06:01:07;;;;;;;6.57;5.15;;;11.80;99.90;;;;;;5049023;28;20186;-69
2023/04/23 06:03:33;;;;;;;6.90;4.73;;;11.90;99.90;;;;;;5047701;28;20260;-68
2023/04/23 06:05:59;;;;;;;12.23;4.53;;;11.90;99.90;;;;;;5040720;28;20313;-68
2023/04/23 06:08:24;;;;;;;6.75;4.55;;;11.90;99.90;;;;;;5050512;28;20684;-68
2023/04/23 06:10:50;;;;;;;11.57;4.72;;;11.80;99.90;;;;;;5060559;28;20185;-68
2023/04/23 06:13:16;;;;;;;7.88;4.05;;;11.90;99.90;;;;;;5038718;28;20305;-69
2023/04/23 06:15:41;;;;;;;9.40;4.35;;;11.90;99.90;;;;;;5053042;28;20191;-68
2023/04/23 06:18:09;;;;;;;4.70;3.65;;;12.10;99.90;;;;;;5053214;28;20709;-68
2023/04/23 06:20:34;;;;;;;7.45;4.57;;;12.10;99.90;;;;;;5051847;28;20193;-68
2023/04/23 06:23:01;;;;;;;10.13;3.95;;;12.20;99.90;;;;;;5053168;28;20190;-69
2023/04/23 06:25:28;;;;;;;5.30;3.95;;;12.30;99.90;;;;;;5052827;28;20212;-67
2023/04/23 06:27:53;;;;;;;8.85;4.22;;;12.30;99.90;;;;;;5053622;28;20185;-68
2023/04/23 06:30:19;;;;;;;9.50;4.25;;;12.40;99.90;;;;;;5053422;28;20186;-67
2023/04/23 06:32:45;;;;;;;6.82;5.05;;;12.40;99.90;;;;;;5053028;28;20182;-67
2023/04/23 06:35:11;;;;;;;5.82;4.10;;;12.50;99.90;;;;;;5041580;28;20258;-68
2023/04/23 06:37:36;;;;;;;5.18;3.90;;;12.50;99.90;;;;;;5069649;28;20317;-68
2023/04/23 06:40:02;;;;;;;11.82;4.50;;;12.50;99.90;;;;;;5052782;28;20209;-68
2023/04/23 06:42:28;;;;;;;11.38;4.05;;;12.60;99.90;;;;;;5052897;28;20650;-67
2023/04/23 06:44:54;;;;;;;4.28;3.58;;;12.50;99.90;;;;;;5039715;28;20683;-67
2023/04/23 06:47:19;;;;;;;7.13;3.55;;;12.70;99.90;;;;;;5041924;28;20569;-67
2023/04/23 06:49:45;;;;;;;4.97;3.75;;;12.70;99.90;;;;;;5052546;28;20190;-66
2023/04/23 06:52:11;;;;;;;4.72;3.17;;;12.70;99.90;;;;;;5051933;28;20193;-66
2023/04/23 06:54:36;;;;;;;3.80;3.47;;;12.60;99.90;;;;;;5051390;28;20638;-68
2023/04/23 06:57:02;;;;;;;4.07;3.60;;;12.70;99.90;;;;;;5052717;28;20492;-67
2023/04/23 06:59:28;;;;;;;3.75;3.20;;;12.90;99.90;;;;;;5052179;28;20181;-67
2023/04/23 07:01:53;;;;;;;4.85;2.95;;;12.90;99.90;;;;;;5053470;28;20583;-67
2023/04/23 07:04:19;;;;;;;8.85;3.80;;;13.00;99.90;;;;;;5040092;28;20225;-67
2023/04/23 07:06:44;;;;;;;8.15;3.90;;;13.10;99.90;;;;;;5034778;28;20201;-68
2023/04/23 07:09:10;;;;;;;6.85;3.03;;;13.30;99.90;;;;;;5039974;28;20193;-68
2023/04/23 07:11:36;;;;;;;4.05;3.10;;;13.20;99.90;;;;;;5052593;28;20183;-68
2023/04/23 07:14:02;;;;;;;4.68;3.30;;;13.30;99.90;;;;;;5050167;28;20186;-68
2023/04/23 07:16:32;;;;;;;5.50;3.05;;;13.40;99.90;;;;;;5050801;28;20189;-68
2023/04/23 07:18:58;;;;;;;6.15;2.97;;;13.40;99.90;;;;;;5047754;28;20225;-68
2023/04/23 07:21:26;;;;;;;4.05;2.80;;;13.60;99.90;;;;;;5038045;28;20228;-68
2023/04/23 07:23:53;;;;;;;2.42;2.22;;;13.50;99.90;;;;;;5044855;28;20501;-68
2023/04/23 07:26:20;;;;;;;4.95;2.92;;;13.50;99.90;;;;;;5052747;28;20209;-69
2023/04/23 07:28:47;;;;;;;5.00;3.20;;;13.50;99.90;;;;;;5034609;28;20187;-68
2023/04/23 07:31:13;;;;;;;7.18;3.13;;;13.70;99.90;;;;;;5045774;28;20178;-67
2023/04/23 07:33:39;;;;;;;3.15;2.90;;;13.90;99.90;;;;;;5048062;28;20192;-69
2023/04/23 07:36:04;;;;;;;5.07;2.70;;;14.80;99.90;;;;;;5039284;28;20312;-68
2023/04/23 07:38:30;;;;;;;9.98;2.60;;;15.80;99.90;;;;;;5051734;28;20209;-68
2023/04/23 07:40:56;;;;;;;5.82;3.22;;;16.10;99.90;;;;;;5041617;28;20186;-67
2023/04/23 07:43:21;;;;;;;3.67;2.70;;;16.70;99.90;;;;;;5051126;28;20182;-69
2023/04/23 07:45:47;;;;;;;7.65;3.03;;;17.40;99.90;;;;;;5050819;28;20205;-68
2023/04/23 07:48:13;;;;;;;3.63;2.40;;;18.20;99.90;;;;;;5050199;28;20177;-68
2023/04/23 07:50:38;;;;;;;5.50;2.45;;;19.00;99.90;;;;;;5050560;28;20178;-69
2023/04/23 07:53:04;;;;;;;2.47;1.98;;;19.70;99.90;;;;;;5050156;28;20182;-67
2023/04/23 07:55:30;;;;;;;3.05;1.90;;;19.40;99.90;;;;;;5052009;28;20560;-69
2023/04/23 07:57:55;;;;;;;4.10;2.45;;;19.70;99.90;;;;;;5048691;28;20591;-68
2023/04/23 08:00:21;;;;;;;2.45;2.05;;;20.10;99.90;;;;;;5082411;28;20269;-68
2023/04/23 08:02:47;;;;;;;5.75;3.13;;;19.90;99.90;;;;;;5055899;28;20182;-68
2023/04/23 08:05:12;;;;;;;2.28;1.92;;;19.60;99.90;;;;;;5054378;28;20209;-69
2023/04/23 08:07:38;;;;;;;2.70;1.88;;;19.30;99.90;;;;;;5051119;28;20186;-68
2023/04/23 08:10:05;;;;;;;3.00;1.77;;;19.50;99.90;;;;;;5049341;28;20182;-67
2023/04/23 08:12:34;;;;;;;3.25;1.63;;;19.80;99.90;;;;;;5052450;28;20177;-69
2023/04/23 08:15:00;;;;;;;5.78;1.98;;;19.30;99.90;;;;;;5054629;28;20705;-69
2023/04/23 08:17:26;;;;;;;3.15;2.78;;;18.60;99.90;;;;;;5048364;28;20191;-67
2023/04/23 08:19:51;;;;;;;8.38;2.28;;;18.80;99.90;;;;;;5052018;28;20205;-68
2023/04/23 08:22:17;;;;;;;5.57;2.00;;;19.80;99.90;;;;;;5041075;28;20532;-69
2023/04/23 08:24:45;;;;;;;2.22;1.90;;;19.90;99.90;;;;;;5049915;28;20222;-70
2023/04/23 08:27:11;;;;;;;6.30;1.85;;;19.30;99.90;;;;;;5048667;28;20186;-69
2023/04/23 08:29:36;;;;;;;4.35;2.40;;;18.70;99.90;;;;;;5055720;28;20541;-68
2023/04/23 08:32:02;;;;;;;4.40;1.95;;;18.10;99.90;;;;;;5052316;28;20559;-69
2023/04/23 08:34:28;;;;;;;2.17;1.98;;;18.00;99.90;;;;;;5052527;28;20191;-70
2023/04/23 08:36:53;;;;;;;4.60;2.33;;;17.80;99.90;;;;;;5055515;28;20196;-69
2023/04/23 08:39:19;;;;;;;6.03;2.30;;;17.70;99.90;;;;;;5055331;28;20535;-71
2023/04/23 08:41:52;;;;;;;6.35;2.85;;;17.70;99.90;;;;;;5055159;28;20182;-69
2023/04/23 08:44:21;;;;;;;4.28;2.15;;;17.30;99.90;;;;;;5054181;28;20185;-70
2023/04/23 08:46:47;;;;;;;7.50;2.40;;;17.30;99.90;;;;;;5052646;28;20269;-68
2023/04/23 08:49:17;;;;;;;6.88;2.30;;;17.50;99.90;;;;;;5042596;28;20262;-68
2023/04/23 08:51:51;;;;;;;3.38;2.05;;;17.40;99.90;;;;;;5047670;28;20177;-73
2023/04/23 08:54:33;;;;;;;3.83;2.78;;;17.50;99.90;;;;;;5059010;28;20177;-73
2023/04/23 08:56:59;;;;;;;3.80;2.10;;;17.30;99.90;;;;;;5046573;28;20183;-71
2023/04/23 08:59:27;;;;;;;2.55;2.22;;;17.20;99.90;;;;;;5045258;28;20182;-71
2023/04/23 09:01:54;;;;;;;7.63;2.10;;;17.30;99.90;;;;;;5048987;28;20189;-71
2023/04/23 09:04:21;;;;;;;9.25;2.30;;;17.40;99.90;;;;;;5050913;28;20546;-74
2023/04/23 09:06:46;;;;;;;8.75;2.47;;;17.60;99.90;;;;;;5048533;28;20206;-70
2023/04/23 09:09:16;;;;;;;4.97;1.65;;;17.60;99.90;;;;;;5047618;28;20288;-69
2023/04/23 09:11:43;;;;;;;3.67;1.95;;;17.70;99.90;;;;;;5053963;28;20228;-69
2023/04/23 09:14:09;;;;;;;8.38;1.92;;;17.10;99.90;;;;;;5085344;28;20546;-70
2023/04/23 09:16:35;;;;;;;3.42;2.20;;;17.00;99.90;;;;;;5049629;28;20190;-67
2023/04/23 09:19:02;;;;;;;7.95;2.70;;;17.00;99.90;;;;;;5044858;28;20571;-68
2023/04/23 09:21:27;;;;;;;4.18;2.35;;;17.20;99.90;;;;;;5055071;28;20236;-70
2023/04/23 09:23:53;;;;;;;4.22;1.80;;;17.60;99.90;;;;;;5049129;28;20636;-70
2023/04/23 09:26:23;;;;;;;3.22;1.90;;;17.60;99.90;;;;;;5048657;28;20252;-70
2023/04/23 09:28:52;;;;;;;4.18;1.90;;;17.40;99.90;;;;;;5042828;28;20206;-70
2023/04/23 09:31:24;;;;;;;2.70;1.90;;;17.30;99.90;;;;;;5050041;28;20583;-70
2023/04/23 09:33:54;;;;;;;2.38;1.65;;;17.10;99.90;;;;;;5045392;28;20182;-70
2023/04/23 09:36:23;;;;;;;6.32;1.80;;;17.40;99.90;;;;;;5043815;28;20228;-71
2023/04/23 09:38:49;;;;;;;2.25;1.75;;;17.50;99.90;;;;;;5053407;28;20268;-68
2023/04/23 09:41:22;;;;;;;2.65;1.63;;;17.70;99.90;;;;;;5040681;28;20542;-71
2023/04/23 09:43:48;;;;;;;2.83;1.98;;;17.60;99.90;;;;;;5044203;28;20182;-71
2023/04/23 09:46:14;;;;;;;7.82;2.80;;;17.80;99.90;;;;;;5035620;28;20685;-69
2023/04/23 09:48:43;;;;;;;4.10;2.63;;;18.00;99.90;;;;;;5053112;28;20173;-69
2023/04/23 09:51:13;;;;;;;7.22;3.20;;;18.10;99.90;;;;;;5053888;28;20186;-69
2023/04/23 09:53:42;;;;;;;3.58;2.03;;;18.10;99.90;;;;;;5053101;28;20197;-68
2023/04/23 09:56:08;;;;;;;4.57;1.95;;;18.00;99.90;;;;;;5049095;28;20273;-71
2023/04/23 09:58:34;;;;;;;6.20;1.85;;;18.40;99.90;;;;;;5039809;28;20261;-71
2023/04/23 10:01:07;;;;;;;3.85;2.25;;;18.40;99.90;;;;;;5068909;28;20197;-69
2023/04/23 10:03:33;;;;;;;3.63;2.17;;;17.90;99.90;;;;;;5042091;28;20193;-69
2023/04/23 10:06:00;;;;;;;2.13;1.63;;;17.70;99.90;;;;;;5042315;28;20218;-68
2023/04/23 10:08:26;;;;;;;2.45;1.67;;;18.00;99.90;;;;;;5046173;28;20278;-68
2023/04/23 10:10:51;;;;;;;6.95;1.95;;;17.90;99.90;;;;;;5038487;28;20217;-68
2023/04/23 10:13:18;;;;;;;4.65;2.30;;;18.00;99.90;;;;;;5045124;28;20191;-68
2023/04/23 10:15:46;;;;;;;4.70;1.42;;;17.90;99.90;;;;;;5051030;28;20186;-68
2023/04/23 10:18:13;;;;;;;4.53;1.50;;;17.80;99.90;;;;;;5050519;28;20236;-69
2023/04/23 10:20:40;;;;;;;3.97;1.70;;;17.70;99.90;;;;;;5052805;28;20177;-68
2023/04/23 10:23:08;;;;;;;7.53;2.92;;;17.70;99.90;;;;;;5046820;28;20189;-67
2023/04/23 10:25:37;;;;;;;3.78;1.77;;;17.60;99.90;;;;;;5043598;28;20686;-68
2023/04/23 10:28:04;;;;;;;5.20;1.55;;;17.30;99.90;;;;;;5063813;28;20548;-68
2023/04/23 10:30:32;;;;;;;5.35;2.50;;;17.40;99.90;;;;;;5048371;28;20198;-68
2023/04/23 10:33:00;;;;;;;2.10;1.40;;;17.70;99.90;;;;;;5054181;28;20256;-70
2023/04/23 10:35:26;;;;;;;2.15;1.50;;;17.80;99.90;;;;;;5053273;28;20189;-70
2023/04/23 10:37:52;;;;;;;3.53;1.45;;;18.00;99.90;;;;;;5051420;28;20196;-70
2023/04/23 10:40:28;;;;;;;3.80;1.60;;;18.30;99.90;;;;;;5042097;28;20186;-71
2023/04/23 10:42:54;;;;;;;2.50;1.83;;;18.40;99.90;;;;;;5047127;28;20547;-68
2023/04/23 10:45:20;;;;;;;4.05;1.42;;;18.50;99.90;;;;;;5065749;28;20203;-69
2023/04/23 10:47:46;;;;;;;1.70;1.27;;;18.50;99.90;;;;;;5050051;28;20196;-73
2023/04/23 10:50:21;;;;;;;3.88;1.50;;;18.70;99.90;;;;;;5049057;28;20183;-71
2023/04/23 10:52:50;;;;;;;3.05;1.77;;;18.90;99.90;;;;;;5045484;28;20635;-70
2023/04/23 10:55:18;;;;;;;1.25;1.23;;;18.80;99.90;;;;;;5051711;28;20224;-73
2023/04/23 10:58:04;;;;;;;4.00;2.28;;;18.30;99.90;;;;;;5053263;28;20197;-71
2023/04/23 11:00:51;;;;;;;9.40;2.53;;;17.80;99.90;;;;;;5049588;28;20181;-68
2023/04/23 11:03:38;;;;;;;4.30;1.83;;;17.40;99.90;;;;;;5043189;28;20281;-68
2023/04/23 11:06:05;;;;;;;1.58;1.30;;;17.40;99.90;;;;;;5039746;28;20206;-69
2023/04/23 11:08:31;;;;;;;5.72;1.85;;;17.50;99.90;;;;;;5052635;28;20190;-70
2023/04/23 11:10:58;;;;;;;3.92;1.90;;;17.70;99.90;;;;;;5052187;28;20186;-68
2023/04/23 11:13:28;;;;;;;4.60;1.63;;;17.90;99.90;;;;;;5052552;28;20194;-68
2023/04/23 11:16:17;;;;;;;5.82;1.25;;;18.00;99.90;;;;;;5051709;28;20213;-70
2023/04/23 11:19:06;;;;;;;5.35;1.38;;;17.80;99.90;;;;;;5050847;28;20597;-70
2023/04/23 11:21:56;;;;;;;5.72;2.20;;;17.80;99.90;;;;;;5084691;28;20186;-70
2023/04/23 11:24:23;;;;;;;4.72;2.15;;;17.90;99.90;;;;;;5045438;28;20197;-68
2023/04/23 11:26:54;;;;;;;6.88;3.22;;;18.00;99.90;;;;;;5052398;28;20697;-68
2023/04/23 11:29:25;;;;;;;4.05;2.30;;;18.00;99.90;;;;;;5043137;28;20258;-71
2023/04/23 11:31:55;;;;;;;2.65;1.65;;;18.30;99.90;;;;;;5052168;28;20170;-69
2023/04/23 11:34:21;;;;;;;4.18;1.83;;;18.40;99.90;;;;;;5051701;28;20190;-71
2023/04/23 11:36:53;;;;;;;2.13;1.60;;;18.70;99.90;;;;;;5051863;28;20252;-72
2023/04/23 11:39:19;;;;;;;4.63;1.65;;;18.50;99.90;;;;;;5051555;28;20182;-67
2023/04/23 11:41:45;;;;;;;6.43;2.20;;;18.30;99.90;;;;;;5047685;28;20244;-69
2023/04/23 11:44:12;;;;;;;3.78;2.35;;;18.10;99.90;;;;;;5043551;28;20221;-69
2023/04/23 11:46:38;;;;;;;2.90;1.30;;;18.10;99.90;;;;;;5044431;28;20225;-73
2023/04/23 11:49:05;;;;;;;10.98;1.73;;;18.30;99.90;;;;;;5050542;28;20217;-66
2023/04/23 11:51:31;;;;;;;2.47;1.83;;;18.30;99.90;;;;;;5049690;28;20189;-66
2023/04/23 11:54:02;;;;;;;4.22;1.48;;;18.60;99.90;;;;;;5052037;28;20805;-68
2023/04/23 11:56:31;;;;;;;4.25;1.30;;;18.60;99.90;;;;;;5048721;28;20364;-71
2023/04/23 11:59:04;;;;;;;4.05;2.75;;;18.80;99.90;;;;;;5050751;28;20209;-72
2023/04/23 12:01:49;;;;;;;2.35;1.30;;;18.50;99.90;;;;;;5050580;28;20599;-70
2023/04/23 12:04:17;;;;;;;2.05;1.08;;;18.00;99.90;;;;;;5042917;28;20205;-68
2023/04/23 12:06:45;;;;;;;4.00;1.25;;;17.50;99.90;;;;;;5045675;28;20268;-68
2023/04/23 12:09:12;;;;;;;3.15;1.48;;;17.00;99.90;;;;;;5052445;28;20189;-69
2023/04/23 12:11:39;;;;;;;2.95;1.67;;;16.70;99.90;;;;;;5048279;28;20579;-70
2023/04/23 12:14:06;;;;;;;2.10;1.58;;;16.50;99.90;;;;;;5049956;28;20180;-67
2023/04/23 12:16:37;;;;;;;4.97;1.65;;;16.20;99.90;;;;;;5049681;28;20220;-70
2023/04/23 12:19:03;;;;;;;2.72;2.15;;;15.70;99.90;;;;;;5050451;28;20222;-71
2023/04/23 12:21:29;;;;;;;4.18;2.85;;;15.40;99.90;;;;;;5049503;28;20201;-71
2023/04/23 12:23:56;;;;;;;4.55;2.47;;;15.30;99.90;;;;;;5048232;28;20280;-66
2023/04/23 12:26:24;;;;;;;4.13;2.22;;;15.40;99.90;;;;;;5043723;28;20351;-69
2023/04/23 12:28:55;;;;;;;6.82;2.45;;;15.40;99.90;;;;;;5052679;28;20189;-69
2023/04/23 12:31:23;;;;;;;6.68;2.90;;;15.40;99.90;;;;;;5055258;28;20185;-67
2023/04/23 12:34:02;;;;;;;6.78;2.28;;;15.30;99.90;;;;;;5041721;28;20292;-68
2023/04/23 12:36:29;;;;;;;3.85;1.80;;;15.10;99.90;;;;;;5050628;28;20593;-68
2023/04/23 12:39:32;;;;;;;7.43;1.85;;;15.20;99.90;;;;;;5051168;28;20328;-66